Terminal Aerodrome Forecast
Issued by NWS Duluth, MN

Home | Current Version | Previous Version | Text Only | Print | Product List | Glossary On
Versions: 1 2 3 4 5 6 7 8 9 10 11 12 13 14 15 16 17 18
000
FTUS43 KDLH 140400 AAA
TAFINL
TAF AMD
KINL 140424Z 1404/1424 35010KT P6SM BKN040
      TEMPO 1404/1406 4SM -SN BKN025
     FM141400 34012G22KT P6SM VCSH SCT025 BKN050=

USA.gov is the U.S. government's official web portal to all federal, state and local government web resources and services.